Time;durP1;ratioP1;P1;durP2;ratioP2;P2;SDS_P1;SDS_P2;PMS_P1;PMS_P2;Temp;Humidity;BMP_temperature;BMP_pressure;BME280_temperature;BME280_humidity;BME280_pressure;Samples;Min_cycle;Max_cycle;Signal;HPM_P1;HPM_P2
2021/03/04 00:01:07;;;;;;;53.08;28.45;;;;;;;-139.48;100.00;61774.03;4994213;28;20092;-71
2021/03/04 00:03:51;;;;;;;44.63;26.98;;;;;;;-139.48;100.00;61774.03;4993833;28;20474;-71
2021/03/04 00:06:36;;;;;;;38.58;22.42;;;;;;;-139.48;100.00;61774.03;4993997;28;20100;-71
2021/03/04 00:09:20;;;;;;;53.95;30.20;;;;;;;-139.48;100.00;61774.03;4993210;28;20052;-69
2021/03/04 00:12:04;;;;;;;56.65;31.75;;;;;;;-139.48;100.00;61774.03;4993050;28;20082;-71
2021/03/04 00:14:48;;;;;;;58.20;30.80;;;;;;;-139.48;100.00;61774.03;4979096;28;20056;-70
2021/03/04 00:17:32;;;;;;;53.42;29.25;;;;;;;-139.48;100.00;61774.03;4992802;28;20069;-71
2021/03/04 00:20:21;;;;;;;51.30;27.45;;;;;;;-139.48;100.00;61774.03;4994854;28;20053;-71
2021/03/04 00:23:06;;;;;;;47.90;27.65;;;;;;;-139.48;100.00;61774.03;4999070;28;20049;-70
2021/03/04 00:25:50;;;;;;;;;;;;;;;-139.48;100.00;61774.03;4999701;28;20149;-68
2021/03/04 00:28:34;;;;;;;55.97;28.90;;;;;;;-139.48;100.00;61774.03;5000197;28;19968;-71
2021/03/04 00:31:18;;;;;;;52.78;29.27;;;;;;;-139.48;100.00;61774.03;5000447;28;20471;-71
2021/03/04 00:34:02;;;;;;;46.42;24.38;;;;;;;-139.48;100.00;61774.03;4985548;28;20510;-71
2021/03/04 00:36:46;;;;;;;43.75;23.67;;;;;;;-139.48;100.00;61774.03;5000410;28;20506;-71
2021/03/04 00:39:30;;;;;;;46.33;25.92;;;;;;;-139.48;100.00;61774.03;5000323;28;20053;-70
2021/03/04 00:42:14;;;;;;;50.63;26.95;;;;;;;-139.48;100.00;61774.03;4999994;28;20100;-71
2021/03/04 00:44:59;;;;;;;43.55;24.48;;;;;;;-139.48;100.00;61774.03;4999363;28;20081;-71
2021/03/04 00:47:43;;;;;;;46.78;25.70;;;;;;;-139.48;100.00;61774.03;4999089;28;20482;-71
2021/03/04 00:50:27;;;;;;;47.28;25.52;;;;;;;-139.48;100.00;61774.03;4999209;28;20081;-71
2021/03/04 00:53:11;;;;;;;41.97;23.40;;;;;;;-139.48;100.00;61774.03;4985656;28;20061;-71
2021/03/04 00:55:55;;;;;;;42.13;24.33;;;;;;;-139.48;100.00;61774.03;5000218;28;20108;-71
2021/03/04 00:58:39;;;;;;;42.65;24.40;;;;;;;-139.48;100.00;61774.03;4999021;28;20116;-71
2021/03/04 01:01:23;;;;;;;46.03;25.70;;;;;;;-139.48;100.00;61774.03;4999850;28;20411;-71
2021/03/04 01:04:07;;;;;;;39.92;24.73;;;;;;;-139.48;100.00;61774.03;4998831;28;20057;-70
2021/03/04 01:06:51;;;;;;;47.75;24.88;;;;;;;-139.48;100.00;61774.03;4999095;28;20108;-71
2021/03/04 01:09:35;;;;;;;53.78;24.80;;;;;;;-139.48;100.00;61774.03;4998930;28;20470;-71
2021/03/04 01:12:19;;;;;;;47.25;25.70;;;;;;;-139.48;100.00;61774.03;4999046;28;20435;-71
2021/03/04 01:15:13;;;;;;;40.20;22.85;;;;;;;-139.48;100.00;61774.03;4999177;28;20122;-70
2021/03/04 01:17:57;;;;;;;43.05;24.80;;;;;;;-139.48;100.00;61774.03;4985345;28;20136;-71
2021/03/04 01:20:41;;;;;;;41.22;23.92;;;;;;;-139.48;100.00;61774.03;4999746;28;20122;-71
2021/03/04 01:23:26;;;;;;;43.80;24.60;;;;;;;-139.48;100.00;61774.03;4984864;28;20069;-71
2021/03/04 01:26:11;;;;;;;42.03;24.08;;;;;;;-139.48;100.00;61774.03;4998827;28;20526;-71
2021/03/04 01:28:55;;;;;;;48.97;24.02;;;;;;;-139.48;100.00;61774.03;4999618;28;20169;-70
2021/03/04 01:31:39;;;;;;;40.15;22.45;;;;;;;-139.48;100.00;61774.03;4983735;28;20105;-71
2021/03/04 01:34:23;;;;;;;45.35;25.45;;;;;;;-139.48;100.00;61774.03;4996804;28;20138;-71
2021/03/04 01:37:08;;;;;;;44.95;24.20;;;;;;;-139.48;100.00;61774.03;4995782;28;20104;-71
2021/03/04 01:39:52;;;;;;;42.88;24.50;;;;;;;-139.48;100.00;61774.03;4995413;28;20093;-70
2021/03/04 01:42:36;;;;;;;47.45;24.00;;;;;;;-139.48;100.00;61774.03;4981764;28;20129;-71
2021/03/04 01:45:20;;;;;;;42.42;22.85;;;;;;;-139.48;100.00;61774.03;4996378;28;20122;-71
2021/03/04 01:48:04;;;;;;;39.97;24.73;;;;;;;-139.48;100.00;61774.03;4981838;28;20464;-71
2021/03/04 01:50:49;;;;;;;42.22;23.65;;;;;;;-139.48;100.00;61774.03;4996382;28;20069;-71
2021/03/04 01:53:34;;;;;;;39.97;23.88;;;;;;;-139.48;100.00;61774.03;4996398;28;20053;-71
2021/03/04 01:56:18;;;;;;;47.22;25.08;;;;;;;-139.48;100.00;61774.03;4996427;28;20108;-71
2021/03/04 01:59:02;;;;;;;;;;;;;;;-139.48;100.00;61774.03;4995665;28;20119;-71
2021/03/04 02:01:47;;;;;;;50.38;25.30;;;;;;;-139.48;100.00;61774.03;4981573;28;19920;-71
2021/03/04 02:04:32;;;;;;;48.72;24.83;;;;;;;-139.48;100.00;61774.03;4996346;28;20084;-71
2021/03/04 02:07:43;;;;;;;48.83;24.52;;;;;;;-139.48;100.00;61774.03;4995156;28;20048;-71
2021/03/04 02:10:36;;;;;;;49.13;23.08;;;;;;;-139.48;100.00;61774.03;4995400;28;20092;-71
2021/03/04 02:13:29;;;;;;;42.60;23.00;;;;;;;-139.48;100.00;61774.03;4995864;28;20057;-71
2021/03/04 02:16:25;;;;;;;46.63;24.75;;;;;;;-139.48;100.00;61774.03;4994809;28;20041;-70
2021/03/04 02:19:23;;;;;;;48.40;24.67;;;;;;;-139.48;100.00;61774.03;4995013;28;20130;-71
2021/03/04 02:22:31;;;;;;;39.85;23.02;;;;;;;-139.48;100.00;61774.03;4995723;28;20093;-71
2021/03/04 02:25:28;;;;;;;41.42;22.30;;;;;;;-139.48;100.00;61774.03;4982713;28;20057;-69
2021/03/04 02:28:13;;;;;;;45.20;24.48;;;;;;;-139.48;100.00;61774.03;4994890;28;20048;-70
2021/03/04 02:31:01;;;;;;;47.72;23.73;;;;;;;-139.48;100.00;61774.03;4980944;28;20045;-71
2021/03/04 02:33:46;;;;;;;43.08;23.33;;;;;;;-139.48;100.00;61774.03;4995929;28;20104;-71
2021/03/04 02:36:35;;;;;;;43.33;24.98;;;;;;;-139.48;100.00;61774.03;4995380;28;20137;-70
2021/03/04 02:39:20;;;;;;;36.83;22.17;;;;;;;-139.48;100.00;61774.03;4994330;28;20105;-71
2021/03/04 02:42:04;;;;;;;45.95;24.70;;;;;;;-139.48;100.00;61774.03;4995383;28;20053;-71
2021/03/04 02:44:50;;;;;;;45.90;25.92;;;;;;;-139.48;100.00;61774.03;4994393;28;20586;-71
2021/03/04 02:47:37;;;;;;;41.63;24.65;;;;;;;-139.48;100.00;61774.03;4980855;28;20049;-69
2021/03/04 02:50:23;;;;;;;48.33;24.50;;;;;;;-139.48;100.00;61774.03;4994278;28;20053;-71
2021/03/04 02:53:08;;;;;;;44.67;23.45;;;;;;;-139.48;100.00;61774.03;4995307;28;20052;-71
2021/03/04 02:55:52;;;;;;;45.78;24.27;;;;;;;-139.48;100.00;61774.03;4994317;28;20149;-71
2021/03/04 02:58:36;;;;;;;;;;;;;;;-139.48;100.00;61774.03;4994469;28;20053;-71
2021/03/04 03:01:22;;;;;;;41.40;23.73;;;;;;;-139.48;100.00;61774.03;4993944;28;20013;-70
2021/03/04 03:04:07;;;;;;;46.28;25.08;;;;;;;-139.48;100.00;61774.03;4993852;28;20518;-70
2021/03/04 03:06:53;;;;;;;36.50;20.48;;;;;;;-139.48;100.00;61774.03;4993864;28;20103;-71
2021/03/04 03:09:38;;;;;;;44.20;24.90;;;;;;;-139.48;100.00;61774.03;4994110;28;20403;-71
2021/03/04 03:12:22;;;;;;;;;;;;;;;-139.48;100.00;61774.03;4995316;28;20084;-70
2021/03/04 03:15:09;;;;;;;46.55;25.17;;;;;;;-139.48;100.00;61774.03;4994741;28;20366;-71
2021/03/04 03:17:54;;;;;;;41.42;24.38;;;;;;;-139.48;100.00;61774.03;4994178;28;20057;-71
2021/03/04 03:20:38;;;;;;;51.10;25.13;;;;;;;-139.48;100.00;61774.03;4993891;28;20050;-71
2021/03/04 03:23:22;;;;;;;49.95;26.67;;;;;;;-139.48;100.00;61774.03;4993467;28;20137;-71
2021/03/04 03:26:06;;;;;;;50.22;24.48;;;;;;;-139.48;100.00;61774.03;4994544;28;20053;-71
2021/03/04 03:28:50;;;;;;;51.33;26.45;;;;;;;-139.48;100.00;61774.03;4993966;28;20049;-70
2021/03/04 03:31:35;;;;;;;44.78;24.20;;;;;;;-139.48;100.00;61774.03;4994682;28;20069;-71
2021/03/04 03:34:20;;;;;;;50.72;26.90;;;;;;;-139.48;100.00;61774.03;4994661;28;20049;-71
2021/03/04 03:37:04;;;;;;;47.47;26.45;;;;;;;-139.48;100.00;61774.03;4993535;28;20053;-71
2021/03/04 03:39:50;;;;;;;44.17;25.95;;;;;;;-139.48;100.00;61774.03;4979766;28;20047;-71
2021/03/04 03:42:35;;;;;;;49.75;27.98;;;;;;;-139.48;100.00;61774.03;4993187;28;20111;-70
2021/03/04 03:45:33;;;;;;;50.60;27.55;;;;;;;-139.48;100.00;61774.03;4993473;28;20080;-71
2021/03/04 03:48:20;;;;;;;51.55;26.98;;;;;;;-139.48;100.00;61774.03;4993415;28;20092;-70
2021/03/04 03:51:04;;;;;;;52.42;27.90;;;;;;;-139.48;100.00;61774.03;4993262;28;20064;-70
2021/03/04 03:53:49;;;;;;;50.35;28.05;;;;;;;-139.48;100.00;61774.03;4994258;28;20048;-71
2021/03/04 03:56:35;;;;;;;48.08;26.23;;;;;;;-139.48;100.00;61774.03;4993656;28;20510;-70
2021/03/04 03:59:19;;;;;;;53.67;27.60;;;;;;;-139.48;100.00;61774.03;4994185;28;20192;-71
2021/03/04 04:02:03;;;;;;;51.08;27.88;;;;;;;-139.48;100.00;61774.03;4994128;28;20073;-71
2021/03/04 04:04:47;;;;;;;46.53;27.67;;;;;;;-139.48;100.00;61774.03;4994243;28;20101;-71
2021/03/04 04:07:32;;;;;;;50.92;26.60;;;;;;;-139.48;100.00;61774.03;4992956;28;20100;-71
2021/03/04 04:10:16;;;;;;;52.13;27.80;;;;;;;-139.48;100.00;61774.03;4993861;28;20121;-71
2021/03/04 04:13:01;;;;;;;52.30;28.05;;;;;;;-139.48;100.00;61774.03;4994268;28;20113;-70
2021/03/04 04:15:45;;;;;;;51.63;27.23;;;;;;;-139.48;100.00;61774.03;4994058;28;20165;-71
2021/03/04 04:18:30;;;;;;;48.35;27.08;;;;;;;-139.48;100.00;61774.03;4992735;28;20053;-71
2021/03/04 04:21:14;;;;;;;49.88;28.30;;;;;;;-139.48;100.00;61774.03;4994005;28;20069;-71
2021/03/04 04:24:00;;;;;;;54.95;27.02;;;;;;;-139.48;100.00;61774.03;4993851;28;20061;-71
2021/03/04 04:26:44;;;;;;;48.40;26.20;;;;;;;-139.48;100.00;61774.03;4992718;28;20575;-71
2021/03/04 04:29:28;;;;;;;49.70;27.67;;;;;;;-139.48;100.00;61774.03;4993710;28;20077;-71
2021/03/04 04:32:12;;;;;;;55.15;28.88;;;;;;;-139.48;100.00;61774.03;4979135;28;20100;-71
2021/03/04 04:34:56;;;;;;;50.90;26.15;;;;;;;-139.48;100.00;61774.03;4992614;28;20046;-71
2021/03/04 04:37:40;;;;;;;49.95;28.83;;;;;;;-139.48;100.00;61774.03;4993833;28;20052;-70
2021/03/04 04:40:24;;;;;;;50.25;28.25;;;;;;;-139.48;100.00;61774.03;4993742;28;20129;-71
2021/03/04 04:43:08;;;;;;;40.83;23.98;;;;;;;-139.48;100.00;61774.03;4993473;28;20057;-71
2021/03/04 04:45:53;;;;;;;48.72;26.27;;;;;;;-139.48;100.00;61774.03;4992808;28;20049;-71
2021/03/04 04:48:38;;;;;;;48.42;24.77;;;;;;;-139.48;100.00;61774.03;4993746;28;20049;-71
2021/03/04 04:51:22;;;;;;;45.67;26.33;;;;;;;-139.48;100.00;61774.03;4993729;28;20140;-71
2021/03/04 04:54:06;;;;;;;40.40;25.73;;;;;;;-139.48;100.00;61774.03;4992614;28;20089;-70
2021/03/04 04:56:50;;;;;;;51.85;26.52;;;;;;;-139.48;100.00;61774.03;4992370;28;20073;-71
2021/03/04 04:59:35;;;;;;;43.05;26.23;;;;;;;-139.48;100.00;61774.03;4992330;28;20109;-71
2021/03/04 05:02:19;;;;;;;47.42;26.02;;;;;;;-139.48;100.00;61774.03;4993519;28;20101;-71
2021/03/04 05:05:07;;;;;;;42.75;25.88;;;;;;;-139.48;100.00;61774.03;4992556;28;20057;-70
2021/03/04 05:07:53;;;;;;;49.97;27.77;;;;;;;-139.48;100.00;61774.03;4994397;28;20058;-71
2021/03/04 05:10:37;;;;;;;47.97;25.38;;;;;;;-139.48;100.00;61774.03;4996363;28;20133;-71
2021/03/04 05:13:21;;;;;;;43.50;25.92;;;;;;;-139.48;100.00;61774.03;4995931;28;20234;-71
2021/03/04 05:16:05;;;;;;;46.42;25.48;;;;;;;-139.48;100.00;61774.03;4982418;28;20120;-71
2021/03/04 05:18:50;;;;;;;44.58;25.38;;;;;;;-139.48;100.00;61774.03;4997277;28;20064;-71
2021/03/04 05:21:34;;;;;;;48.72;25.38;;;;;;;-139.48;100.00;61774.03;4997082;28;20192;-71
2021/03/04 05:24:18;;;;;;;49.15;25.83;;;;;;;-139.48;100.00;61774.03;4996044;28;20049;-71
2021/03/04 05:27:02;;;;;;;42.17;25.73;;;;;;;-139.48;100.00;61774.03;4996728;28;20073;-70
2021/03/04 05:29:46;;;;;;;51.40;24.85;;;;;;;-139.48;100.00;61774.03;4995891;28;20465;-71
2021/03/04 05:32:31;;;;;;;;;;;;;;;-139.48;100.00;61774.03;4996229;28;20049;-70
2021/03/04 05:35:15;;;;;;;44.13;24.25;;;;;;;-139.48;100.00;61774.03;4996805;28;20294;-69
2021/03/04 05:38:00;;;;;;;46.78;25.95;;;;;;;-139.48;100.00;61774.03;4996803;28;20105;-71
2021/03/04 05:40:44;;;;;;;42.92;24.48;;;;;;;-139.48;100.00;61774.03;4995437;28;20050;-70
2021/03/04 05:43:28;;;;;;;44.53;25.00;;;;;;;-139.48;100.00;61774.03;4996616;28;20101;-71
2021/03/04 05:46:14;;;;;;;44.33;25.00;;;;;;;-139.48;100.00;61774.03;4995700;28;20498;-70
2021/03/04 05:48:59;;;;;;;40.97;23.95;;;;;;;-139.48;100.00;61774.03;4996744;28;20046;-71
2021/03/04 05:51:46;;;;;;;46.88;23.85;;;;;;;-139.48;100.00;61774.03;4995458;28;20054;-70
2021/03/04 05:54:35;;;;;;;42.35;22.08;;;;;;;-139.48;100.00;61774.03;4995516;28;20053;-70
2021/03/04 05:57:20;;;;;;;40.35;22.80;;;;;;;-139.48;100.00;61774.03;4996317;28;20193;-70
2021/03/04 06:00:05;;;;;;;39.15;23.00;;;;;;;-139.48;100.00;61774.03;4996442;28;20514;-71
2021/03/04 06:02:54;;;;;;;37.00;22.52;;;;;;;-139.48;100.00;61774.03;4996117;28;20048;-71
2021/03/04 06:05:38;;;;;;;38.70;21.35;;;;;;;-139.48;100.00;61774.03;4996224;28;20518;-70
2021/03/04 06:08:22;;;;;;;44.88;22.98;;;;;;;-139.48;100.00;61774.03;4994943;28;20108;-71
2021/03/04 06:11:07;;;;;;;38.40;21.83;;;;;;;-139.48;100.00;61774.03;4981463;28;20113;-70
2021/03/04 06:13:52;;;;;;;41.85;21.02;;;;;;;-139.48;100.00;61774.03;4995769;28;20137;-71
2021/03/04 06:16:36;;;;;;;40.42;20.65;;;;;;;-139.48;100.00;61774.03;4996292;28;20073;-70
2021/03/04 06:19:20;;;;;;;39.20;20.50;;;;;;;-139.48;100.00;61774.03;4995632;28;20050;-69
2021/03/04 06:22:04;;;;;;;42.33;21.30;;;;;;;-139.48;100.00;61774.03;4994487;28;20104;-71
2021/03/04 06:24:50;;;;;;;36.95;19.70;;;;;;;-139.48;100.00;61774.03;4995984;28;20064;-70
2021/03/04 06:27:38;;;;;;;39.38;20.08;;;;;;;-139.48;100.00;61774.03;4994549;28;20057;-71
2021/03/04 06:30:22;;;;;;;35.50;19.67;;;;;;;-139.48;100.00;61774.03;4995526;28;20096;-71
2021/03/04 06:33:09;;;;;;;35.42;20.17;;;;;;;-139.48;100.00;61774.03;4980661;28;20053;-70
2021/03/04 06:35:53;;;;;;;41.10;20.17;;;;;;;-139.48;100.00;61774.03;4995778;28;20131;-70
2021/03/04 06:38:37;;;;;;;40.28;20.83;;;;;;;-139.48;100.00;61774.03;4995628;28;20134;-71
2021/03/04 06:41:23;;;;;;;41.63;20.35;;;;;;;-139.48;100.00;61774.03;4994443;28;20049;-71
2021/03/04 06:44:07;;;;;;;34.55;18.17;;;;;;;-139.48;100.00;61774.03;4980473;28;20149;-70
2021/03/04 06:46:51;;;;;;;33.45;19.92;;;;;;;-139.48;100.00;61774.03;4995545;28;20053;-70
2021/03/04 06:49:42;;;;;;;40.53;19.73;;;;;;;-139.48;100.00;61774.03;4995403;28;20412;-71
2021/03/04 06:52:31;;;;;;;42.08;20.65;;;;;;;-139.48;100.00;61774.03;4994954;28;20111;-70
2021/03/04 06:55:15;;;;;;;35.20;20.08;;;;;;;-139.48;100.00;61774.03;4995279;28;20514;-71
2021/03/04 06:58:01;;;;;;;34.90;19.60;;;;;;;-139.48;100.00;61774.03;4993948;28;20101;-70
2021/03/04 07:00:45;;;;;;;33.03;19.52;;;;;;;-139.48;100.00;61774.03;4995219;28;20098;-70
2021/03/04 07:03:41;;;;;;;40.55;19.30;;;;;;;-139.48;100.00;61774.03;4993983;28;20125;-71
2021/03/04 07:06:26;;;;;;;36.78;20.25;;;;;;;-139.48;100.00;61774.03;4994943;28;20101;-70
2021/03/04 07:09:10;;;;;;;39.17;21.02;;;;;;;-139.48;100.00;61774.03;4994073;28;20124;-70
2021/03/04 07:11:55;;;;;;;34.80;19.98;;;;;;;-139.48;100.00;61774.03;4980167;28;20081;-70
2021/03/04 07:14:39;;;;;;;34.85;21.45;;;;;;;-139.48;100.00;61774.03;4993864;28;20088;-71
2021/03/04 07:17:26;;;;;;;36.45;19.65;;;;;;;-139.48;100.00;61774.03;4979933;28;20077;-71
2021/03/04 07:20:15;;;;;;;38.63;21.02;;;;;;;-139.48;100.00;61774.03;4980121;28;20101;-70
2021/03/04 07:23:00;;;;;;;34.80;19.98;;;;;;;-139.48;100.00;61774.03;4979858;28;20569;-71
2021/03/04 07:25:44;;;;;;;;;;;;;;;-139.48;100.00;61774.03;4994090;28;20169;-71
2021/03/04 07:28:28;;;;;;;40.67;21.17;;;;;;;-139.48;100.00;61774.03;4993807;28;20000;-70
2021/03/04 07:31:14;;;;;;;35.78;20.25;;;;;;;-139.48;100.00;61774.03;4992971;28;20045;-70
2021/03/04 07:33:59;;;;;;;32.42;18.80;;;;;;;-139.48;100.00;61774.03;4993300;28;20058;-70
2021/03/04 07:36:44;;;;;;;36.53;19.02;;;;;;;-139.48;100.00;61774.03;4994768;28;20065;-70
2021/03/04 07:39:33;;;;;;;33.10;19.45;;;;;;;-139.48;100.00;61774.03;4993471;28;20054;-70
2021/03/04 07:42:20;;;;;;;36.45;19.75;;;;;;;-139.48;100.00;61774.03;4994195;28;20407;-70
2021/03/04 07:45:14;;;;;;;34.92;19.38;;;;;;;-139.48;100.00;61774.03;4994194;28;20057;-70
2021/03/04 07:48:08;;;;;;;33.65;18.60;;;;;;;-139.48;100.00;61774.03;4993383;28;20099;-71
2021/03/04 07:51:00;;;;;;;29.10;17.85;;;;;;;-139.48;100.00;61774.03;4993425;28;20096;-71
2021/03/04 07:53:45;;;;;;;35.72;19.95;;;;;;;-139.48;100.00;61774.03;4992981;28;20108;-70
2021/03/04 07:56:30;;;;;;;34.17;17.67;;;;;;;-139.48;100.00;61774.03;4993273;28;20052;-70
2021/03/04 07:59:15;;;;;;;37.55;19.02;;;;;;;-139.48;100.00;61774.03;4993866;28;20048;-71
2021/03/04 08:02:01;;;;;;;30.98;17.80;;;;;;;-139.48;100.00;61774.03;4993790;28;20053;-70
2021/03/04 08:04:45;;;;;;;33.13;17.33;;;;;;;-139.48;100.00;61774.03;4992916;28;20049;-70
2021/03/04 08:07:29;;;;;;;30.73;17.83;;;;;;;-139.48;100.00;61774.03;4993159;28;20080;-70
2021/03/04 08:10:23;;;;;;;31.77;17.67;;;;;;;-139.48;100.00;61774.03;4994425;28;20060;-70
2021/03/04 08:13:07;;;;;;;28.70;17.45;;;;;;;-139.48;100.00;61774.03;4992995;28;20045;-71
2021/03/04 08:15:51;;;;;;;31.42;17.55;;;;;;;-139.48;100.00;61774.03;4992991;28;20060;-71
2021/03/04 08:18:36;;;;;;;32.15;16.58;;;;;;;-139.48;100.00;61774.03;4993708;28;20116;-70
2021/03/04 08:21:20;;;;;;;30.77;17.48;;;;;;;-139.48;100.00;61774.03;4994020;28;20052;-70
2021/03/04 08:24:05;;;;;;;25.15;14.63;;;;;;;-139.48;100.00;61774.03;4994056;28;20053;-71
2021/03/04 08:26:55;;;;;;;28.50;15.50;;;;;;;-139.48;100.00;61774.03;4993913;28;20054;-71
2021/03/04 08:29:49;;;;;;;26.70;16.00;;;;;;;-139.48;100.00;61774.03;4979066;28;20105;-71
2021/03/04 08:32:35;;;;;;;27.25;16.70;;;;;;;-139.48;100.00;61774.03;4979144;28;20053;-71
2021/03/04 08:35:20;;;;;;;26.13;15.68;;;;;;;-139.48;100.00;61774.03;4992874;28;20522;-70
2021/03/04 08:38:07;;;;;;;25.15;15.20;;;;;;;-139.48;100.00;61774.03;4979230;28;20077;-71
2021/03/04 08:40:53;;;;;;;29.40;16.45;;;;;;;-139.48;100.00;61774.03;4979567;28;20045;-70
2021/03/04 08:43:39;;;;;;;34.42;16.45;;;;;;;-139.48;100.00;61774.03;4996970;28;20529;-70
2021/03/04 08:46:29;;;;;;;24.23;13.25;;;;;;;-139.48;100.00;61774.03;4997752;28;20053;-71
2021/03/04 08:49:20;;;;;;;26.35;15.15;;;;;;;-139.48;100.00;61774.03;4997649;28;20570;-71
2021/03/04 08:52:05;;;;;;;33.08;14.63;;;;;;;-139.48;100.00;61774.03;4997343;28;20141;-71
2021/03/04 08:54:53;;;;;;;26.75;13.48;;;;;;;-139.48;100.00;61774.03;4996593;28;20462;-71
2021/03/04 08:57:37;;;;;;;25.23;14.13;;;;;;;-139.48;100.00;61774.03;4996317;28;20045;-70
2021/03/04 09:00:22;;;;;;;25.98;15.18;;;;;;;-139.48;100.00;61774.03;4997147;28;20045;-70
2021/03/04 09:03:10;;;;;;;30.88;15.38;;;;;;;-139.48;100.00;61774.03;4997308;28;20101;-70
2021/03/04 09:06:05;;;;;;;23.88;14.63;;;;;;;-139.48;100.00;61774.03;4996491;28;20048;-70
2021/03/04 09:08:50;;;;;;;27.60;13.82;;;;;;;-139.48;100.00;61774.03;4996282;28;20066;-70
2021/03/04 09:11:35;;;;;;;35.83;15.18;;;;;;;-139.48;100.00;61774.03;4996035;28;20510;-70
2021/03/04 09:14:28;;;;;;;24.25;13.60;;;;;;;-139.48;100.00;61774.03;4996211;28;20161;-70
2021/03/04 09:17:12;;;;;;;24.35;13.77;;;;;;;-139.48;100.00;61774.03;4982628;28;20053;-70
2021/03/04 09:19:56;;;;;;;21.85;13.15;;;;;;;-139.48;100.00;61774.03;4997092;28;20511;-70
2021/03/04 09:22:44;;;;;;;22.38;13.70;;;;;;;-139.48;100.00;61774.03;4996834;28;20521;-70
2021/03/04 09:25:28;;;;;;;20.23;11.65;;;;;;;-139.48;100.00;61774.03;4997049;28;20057;-70
2021/03/04 09:28:17;;;;;;;22.58;12.93;;;;;;;-139.48;100.00;61774.03;4997048;28;20053;-70
2021/03/04 09:31:09;;;;;;;23.42;13.18;;;;;;;-139.48;100.00;61774.03;4995786;28;20057;-71
2021/03/04 09:34:02;;;;;;;21.10;11.13;;;;;;;-139.48;100.00;61774.03;4996549;28;20045;-71
2021/03/04 09:36:46;;;;;;;20.33;11.73;;;;;;;-139.48;100.00;61774.03;4982201;28;20053;-70
2021/03/04 09:39:44;;;;;;;24.15;11.07;;;;;;;-139.48;100.00;61774.03;4996659;28;20506;-71
2021/03/04 09:42:37;;;;;;;19.67;12.32;;;;;;;-139.48;100.00;61774.03;4995544;28;20419;-70
2021/03/04 09:45:21;;;;;;;25.70;12.70;;;;;;;-139.48;100.00;61774.03;4995722;28;20053;-70
2021/03/04 09:48:05;;;;;;;19.48;11.25;;;;;;;-139.48;100.00;61774.03;4996359;28;20049;-70
2021/03/04 09:50:53;;;;;;;20.15;10.98;;;;;;;-139.48;100.00;61774.03;4981823;28;20045;-70
2021/03/04 09:53:45;;;;;;;20.52;8.88;;;;;;;-139.48;100.00;61774.03;4994701;28;20137;-69
2021/03/04 09:56:31;;;;;;;20.90;10.70;;;;;;;-139.48;100.00;61774.03;4981766;28;20092;-69
2021/03/04 09:59:18;;;;;;;20.42;11.13;;;;;;;-139.48;100.00;61774.03;4995086;28;20058;-69
2021/03/04 10:02:02;;;;;;;24.13;11.55;;;;;;;-139.48;100.00;61774.03;4995335;28;20104;-69
2021/03/04 10:04:55;;;;;;;24.35;11.25;;;;;;;-139.48;100.00;61774.03;4995080;28;20049;-70
2021/03/04 10:07:39;;;;;;;19.67;11.13;;;;;;;-139.48;100.00;61774.03;4981491;28;20053;-70
2021/03/04 10:10:23;;;;;;;17.02;11.48;;;;;;;-139.48;100.00;61774.03;4995956;28;20049;-70
2021/03/04 10:13:08;;;;;;;24.33;11.68;;;;;;;-139.48;100.00;61774.03;4995267;28;20061;-70
2021/03/04 10:15:51;;;;;;;20.13;11.23;;;;;;;-139.48;100.00;61774.03;4996139;28;20057;-69
2021/03/04 10:18:35;;;;;;;23.85;11.45;;;;;;;-139.48;100.00;61774.03;4994795;28;20053;-70
2021/03/04 10:21:20;;;;;;;26.75;12.50;;;;;;;-139.48;100.00;61774.03;4996057;28;20046;-70
2021/03/04 10:24:05;;;;;;;20.25;10.70;;;;;;;-139.48;100.00;61774.03;4995624;28;20053;-70
2021/03/04 10:26:49;;;;;;;18.83;11.25;;;;;;;-139.48;100.00;61774.03;4995654;28;20081;-70
2021/03/04 10:29:34;;;;;;;16.08;9.55;;;;;;;-139.48;100.00;61774.03;4994853;28;20045;-69
2021/03/04 10:32:19;;;;;;;20.38;10.98;;;;;;;-139.48;100.00;61774.03;4995763;28;20505;-70
2021/03/04 10:35:08;;;;;;;19.25;11.18;;;;;;;-139.48;100.00;61774.03;4995810;28;20550;-70
2021/03/04 10:37:52;;;;;;;26.05;12.05;;;;;;;-139.48;100.00;61774.03;4995461;28;20122;-70
2021/03/04 10:40:36;;;;;;;24.92;11.80;;;;;;;-139.48;100.00;61774.03;4994673;28;20049;-68
2021/03/04 10:43:21;;;;;;;20.25;11.77;;;;;;;-139.48;100.00;61774.03;4994690;28;20052;-70
2021/03/04 10:46:05;;;;;;;24.38;10.35;;;;;;;-139.48;100.00;61774.03;4980870;28;20053;-69
2021/03/04 10:48:49;;;;;;;22.45;11.27;;;;;;;-139.48;100.00;61774.03;4994364;28;20045;-70
2021/03/04 10:51:33;;;;;;;23.33;11.82;;;;;;;-139.48;100.00;61774.03;4980583;28;20415;-70
2021/03/04 10:54:17;;;;;;;23.77;10.43;;;;;;;-139.48;100.00;61774.03;4994363;28;20468;-70
2021/03/04 10:57:01;;;;;;;20.75;11.35;;;;;;;-139.48;100.00;61774.03;4995413;28;20111;-70
2021/03/04 10:59:46;;;;;;;29.38;12.40;;;;;;;-139.48;100.00;61774.03;4994947;28;20061;-70
2021/03/04 11:02:31;;;;;;;21.05;11.40;;;;;;;-139.48;100.00;61774.03;4994916;28;20527;-70
2021/03/04 11:05:14;;;;;;;22.23;11.45;;;;;;;-139.48;100.00;61774.03;4993469;28;20057;-70
2021/03/04 11:07:59;;;;;;;23.55;11.75;;;;;;;-139.48;100.00;61774.03;4980405;28;20065;-70
2021/03/04 11:10:44;;;;;;;21.58;11.13;;;;;;;-139.48;100.00;61774.03;4994087;28;20045;-70
2021/03/04 11:13:28;;;;;;;21.67;9.38;;;;;;;-139.48;100.00;61774.03;4993983;28;20069;-71
2021/03/04 11:16:13;;;;;;;21.63;11.30;;;;;;;-139.48;100.00;61774.03;4994778;28;20561;-69
2021/03/04 11:18:57;;;;;;;21.90;10.70;;;;;;;-139.48;100.00;61774.03;4993892;28;20208;-70
2021/03/04 11:21:43;;;;;;;22.60;11.95;;;;;;;-139.48;100.00;61774.03;4993911;28;20088;-70
2021/03/04 11:24:27;;;;;;;27.92;10.88;;;;;;;-139.48;100.00;61774.03;4994697;28;20056;-70
2021/03/04 11:27:10;;;;;;;23.20;11.65;;;;;;;-139.48;100.00;61774.03;4980062;28;20108;-70
2021/03/04 11:29:55;;;;;;;23.88;11.85;;;;;;;-139.48;100.00;61774.03;4994385;28;20100;-70
2021/03/04 11:32:38;;;;;;;15.60;7.43;;;;;;;-139.48;100.00;61774.03;4979698;28;20553;-69
2021/03/04 11:35:27;;;;;;;18.98;9.20;;;;;;;-139.48;100.00;61774.03;4994595;28;20053;-70
2021/03/04 11:38:11;;;;;;;16.58;9.40;;;;;;;-139.48;100.00;61774.03;4993612;28;20049;-69
2021/03/04 11:40:55;;;;;;;16.80;9.25;;;;;;;-139.48;100.00;61774.03;4994252;28;20526;-70
2021/03/04 11:43:40;;;;;;;25.15;11.18;;;;;;;-139.48;100.00;61774.03;4993256;28;20125;-70
2021/03/04 11:46:24;;;;;;;27.13;10.13;;;;;;;-139.48;100.00;61774.03;4993451;28;20096;-70
2021/03/04 11:49:09;;;;;;;19.60;10.13;;;;;;;-139.48;100.00;61774.03;4994468;28;20523;-70
2021/03/04 11:51:53;;;;;;;25.08;10.75;;;;;;;-139.48;100.00;61774.03;4994203;28;20052;-71
2021/03/04 11:54:37;;;;;;;26.35;10.77;;;;;;;-139.48;100.00;61774.03;4979649;28;20053;-70
2021/03/04 11:57:22;;;;;;;24.00;11.15;;;;;;;-139.48;100.00;61774.03;4993025;28;20061;-70
2021/03/04 12:00:07;;;;;;;21.95;10.93;;;;;;;-139.48;100.00;61774.03;4992939;28;20053;-70
2021/03/04 12:02:51;;;;;;;23.23;10.43;;;;;;;-139.48;100.00;61774.03;4993972;28;20480;-70
2021/03/04 12:05:35;;;;;;;20.45;10.15;;;;;;;-139.48;100.00;61774.03;4993198;28;20065;-70
2021/03/04 12:08:19;;;;;;;27.73;10.52;;;;;;;-139.48;100.00;61774.03;4994217;28;20503;-70
2021/03/04 12:11:04;;;;;;;23.00;10.00;;;;;;;-139.48;100.00;61774.03;4994032;28;20414;-70
2021/03/04 12:13:47;;;;;;;19.88;9.63;;;;;;;-139.48;100.00;61774.03;4993668;28;20076;-70
2021/03/04 12:16:31;;;;;;;21.88;10.18;;;;;;;-139.48;100.00;61774.03;4992619;28;20069;-70
2021/03/04 12:19:15;;;;;;;16.67;9.20;;;;;;;-139.48;100.00;61774.03;4979195;28;20084;-68